sensor_id;sensor_type;location;lat;lon;timestamp;pressure;altitude;pressure_sealevel;temperature;humidity
12203;BME280;6164;42.178;24.622;2022-12-29T00:01:41;100858.84;;;5.43;100.00
12203;BME280;6164;42.178;24.622;2022-12-29T00:04:09;100864.91;;;5.44;100.00
12203;BME280;6164;42.178;24.622;2022-12-29T00:06:37;100869.31;;;5.43;100.00
12203;BME280;6164;42.178;24.622;2022-12-29T00:09:05;100868.16;;;5.22;100.00
12203;BME280;6164;42.178;24.622;2022-12-29T00:11:31;100890.22;;;5.18;100.00
12203;BME280;6164;42.178;24.622;2022-12-29T00:13:58;100880.34;;;4.96;100.00
12203;BME280;6164;42.178;24.622;2022-12-29T00:16:42;100869.56;;;4.88;100.00
12203;BME280;6164;42.178;24.622;2022-12-29T00:19:09;100881.34;;;4.81;100.00
12203;BME280;6164;42.178;24.622;2022-12-29T00:21:57;100885.94;;;4.78;100.00
12203;BME280;6164;42.178;24.622;2022-12-29T00:24:43;100881.25;;;4.83;100.00
12203;BME280;6164;42.178;24.622;2022-12-29T00:27:27;100888.72;;;4.89;100.00
12203;BME280;6164;42.178;24.622;2022-12-29T00:30:17;100894.16;;;4.86;100.00
12203;BME280;6164;42.178;24.622;2022-12-29T00:33:04;100904.63;;;4.86;100.00
12203;BME280;6164;42.178;24.622;2022-12-29T00:35:52;100908.75;;;5.02;100.00
12203;BME280;6164;42.178;24.622;2022-12-29T00:38:20;100907.19;;;5.12;100.00
12203;BME280;6164;42.178;24.622;2022-12-29T00:41:05;100915.38;;;5.20;100.00
12203;BME280;6164;42.178;24.622;2022-12-29T00:43:49;100926.19;;;5.28;100.00
12203;BME280;6164;42.178;24.622;2022-12-29T00:46:32;100916.03;;;5.36;100.00
12203;BME280;6164;42.178;24.622;2022-12-29T00:48:59;100926.81;;;5.45;100.00
12203;BME280;6164;42.178;24.622;2022-12-29T00:51:43;100917.41;;;5.55;100.00
12203;BME280;6164;42.178;24.622;2022-12-29T00:54:10;100913.31;;;5.63;100.00
12203;BME280;6164;42.178;24.622;2022-12-29T00:56:38;100918.03;;;5.71;100.00
12203;BME280;6164;42.178;24.622;2022-12-29T00:59:05;100925.25;;;5.80;100.00
12203;BME280;6164;42.178;24.622;2022-12-29T01:01:32;100920.34;;;5.88;100.00
12203;BME280;6164;42.178;24.622;2022-12-29T01:03:59;100920.88;;;5.93;100.00
12203;BME280;6164;42.178;24.622;2022-12-29T01:06:25;100915.31;;;5.97;100.00
12203;BME280;6164;42.178;24.622;2022-12-29T01:08:52;100918.44;;;6.02;100.00
12203;BME280;6164;42.178;24.622;2022-12-29T01:11:32;100915.59;;;6.05;100.00
12203;BME280;6164;42.178;24.622;2022-12-29T01:14:00;100919.88;;;6.06;100.00
12203;BME280;6164;42.178;24.622;2022-12-29T01:16:26;100912.88;;;6.07;100.00
12203;BME280;6164;42.178;24.622;2022-12-29T01:18:53;100912.88;;;6.07;100.00
12203;BME280;6164;42.178;24.622;2022-12-29T01:21:19;100904.38;;;6.03;100.00
12203;BME280;6164;42.178;24.622;2022-12-29T01:23:46;100910.81;;;5.99;100.00
12203;BME280;6164;42.178;24.622;2022-12-29T01:26:13;100906.59;;;5.97;100.00
12203;BME280;6164;42.178;24.622;2022-12-29T01:28:39;100901.56;;;5.94;100.00
12203;BME280;6164;42.178;24.622;2022-12-29T01:31:08;100901.69;;;5.92;100.00
12203;BME280;6164;42.178;24.622;2022-12-29T01:33:34;100900.94;;;5.90;100.00
12203;BME280;6164;42.178;24.622;2022-12-29T01:36:01;100898.53;;;5.87;100.00
12203;BME280;6164;42.178;24.622;2022-12-29T01:38:28;100899.50;;;5.86;100.00
12203;BME280;6164;42.178;24.622;2022-12-29T01:40:54;100890.91;;;5.84;100.00
12203;BME280;6164;42.178;24.622;2022-12-29T01:43:21;100885.44;;;5.87;100.00
12203;BME280;6164;42.178;24.622;2022-12-29T01:45:48;100886.06;;;5.91;100.00
12203;BME280;6164;42.178;24.622;2022-12-29T01:48:18;100879.75;;;5.93;100.00
12203;BME280;6164;42.178;24.622;2022-12-29T01:50:45;100872.53;;;5.97;100.00
12203;BME280;6164;42.178;24.622;2022-12-29T01:53:14;100869.09;;;5.96;100.00
12203;BME280;6164;42.178;24.622;2022-12-29T01:55:44;100855.97;;;5.96;100.00
12203;BME280;6164;42.178;24.622;2022-12-29T01:58:11;100855.88;;;5.98;100.00
12203;BME280;6164;42.178;24.622;2022-12-29T02:00:40;100855.75;;;5.99;100.00
12203;BME280;6164;42.178;24.622;2022-12-29T02:03:06;100853.94;;;6.00;100.00
12203;BME280;6164;42.178;24.622;2022-12-29T02:05:36;100851.94;;;6.03;100.00
12203;BME280;6164;42.178;24.622;2022-12-29T02:08:04;100857.09;;;6.05;100.00
12203;BME280;6164;42.178;24.622;2022-12-29T02:10:31;100842.22;;;6.05;100.00
12203;BME280;6164;42.178;24.622;2022-12-29T02:12:59;100844.09;;;6.03;100.00
12203;BME280;6164;42.178;24.622;2022-12-29T02:15:27;100833.31;;;5.95;100.00
12203;BME280;6164;42.178;24.622;2022-12-29T02:18:02;100828.41;;;5.91;100.00
12203;BME280;6164;42.178;24.622;2022-12-29T02:20:45;100824.84;;;5.79;100.00
12203;BME280;6164;42.178;24.622;2022-12-29T02:23:30;100822.16;;;5.68;100.00
12203;BME280;6164;42.178;24.622;2022-12-29T02:28:59;100814.69;;;5.62;100.00
12203;BME280;6164;42.178;24.622;2022-12-29T02:31:31;100813.16;;;5.60;100.00
12203;BME280;6164;42.178;24.622;2022-12-29T02:34:01;100819.13;;;5.49;100.00
12203;BME280;6164;42.178;24.622;2022-12-29T02:36:35;100820.59;;;5.40;100.00
12203;BME280;6164;42.178;24.622;2022-12-29T02:39:04;100820.50;;;5.29;100.00
12203;BME280;6164;42.178;24.622;2022-12-29T02:41:41;100819.22;;;5.22;100.00
12203;BME280;6164;42.178;24.622;2022-12-29T02:44:11;100814.53;;;5.15;100.00
12203;BME280;6164;42.178;24.622;2022-12-29T02:46:44;100823.41;;;5.00;100.00
12203;BME280;6164;42.178;24.622;2022-12-29T02:49:13;100823.72;;;4.95;100.00
12203;BME280;6164;42.178;24.622;2022-12-29T02:51:44;100830.53;;;4.85;100.00
12203;BME280;6164;42.178;24.622;2022-12-29T02:54:12;100824.28;;;4.61;100.00
12203;BME280;6164;42.178;24.622;2022-12-29T02:56:56;100818.47;;;4.44;100.00
12203;BME280;6164;42.178;24.622;2022-12-29T02:59:23;100813.22;;;4.31;100.00
12203;BME280;6164;42.178;24.622;2022-12-29T03:01:59;100818.91;;;4.24;100.00
12203;BME280;6164;42.178;24.622;2022-12-29T03:04:45;100823.06;;;4.14;100.00
12203;BME280;6164;42.178;24.622;2022-12-29T03:07:17;100819.44;;;4.16;100.00
12203;BME280;6164;42.178;24.622;2022-12-29T03:09:49;100815.88;;;4.17;100.00
12203;BME280;6164;42.178;24.622;2022-12-29T03:12:21;100824.34;;;4.21;100.00
12203;BME280;6164;42.178;24.622;2022-12-29T03:15:02;100821.44;;;4.25;100.00
12203;BME280;6164;42.178;24.622;2022-12-29T03:17:51;100821.19;;;4.16;100.00
12203;BME280;6164;42.178;24.622;2022-12-29T03:20:22;100818.91;;;4.24;100.00
12203;BME280;6164;42.178;24.622;2022-12-29T03:22:51;100810.38;;;4.22;100.00
12203;BME280;6164;42.178;24.622;2022-12-29T03:25:21;100820.41;;;4.28;100.00
12203;BME280;6164;42.178;24.622;2022-12-29T03:27:49;100816.22;;;4.25;100.00
12203;BME280;6164;42.178;24.622;2022-12-29T03:30:16;100810.97;;;4.25;100.00
12203;BME280;6164;42.178;24.622;2022-12-29T03:32:44;100808.81;;;4.32;100.00
12203;BME280;6164;42.178;24.622;2022-12-29T03:35:15;100823.56;;;4.33;100.00
12203;BME280;6164;42.178;24.622;2022-12-29T03:37:44;100811.41;;;4.32;100.00
12203;BME280;6164;42.178;24.622;2022-12-29T03:40:12;100811.53;;;4.30;100.00
12203;BME280;6164;42.178;24.622;2022-12-29T03:42:39;100801.16;;;4.29;100.00
12203;BME280;6164;42.178;24.622;2022-12-29T03:45:07;100808.00;;;4.31;100.00
12203;BME280;6164;42.178;24.622;2022-12-29T03:47:33;100800.44;;;4.27;100.00
12203;BME280;6164;42.178;24.622;2022-12-29T03:50:00;100799.81;;;4.23;100.00
12203;BME280;6164;42.178;24.622;2022-12-29T03:52:28;100798.00;;;4.24;100.00
12203;BME280;6164;42.178;24.622;2022-12-29T03:54:54;100807.81;;;4.20;100.00
12203;BME280;6164;42.178;24.622;2022-12-29T03:57:21;100811.69;;;4.15;100.00
12203;BME280;6164;42.178;24.622;2022-12-29T03:59:47;100804.53;;;4.04;100.00
12203;BME280;6164;42.178;24.622;2022-12-29T04:02:14;100806.22;;;4.05;100.00
12203;BME280;6164;42.178;24.622;2022-12-29T04:04:40;100807.03;;;4.05;100.00
12203;BME280;6164;42.178;24.622;2022-12-29T04:07:07;100814.88;;;4.05;100.00
12203;BME280;6164;42.178;24.622;2022-12-29T04:09:34;100814.72;;;3.94;100.00
12203;BME280;6164;42.178;24.622;2022-12-29T04:12:01;100820.53;;;3.85;100.00
12203;BME280;6164;42.178;24.622;2022-12-29T04:14:27;100825.56;;;3.74;100.00
12203;BME280;6164;42.178;24.622;2022-12-29T04:16:54;100824.09;;;3.70;100.00
12203;BME280;6164;42.178;24.622;2022-12-29T04:19:20;100825.88;;;3.70;100.00
12203;BME280;6164;42.178;24.622;2022-12-29T04:21:47;100826.34;;;3.62;100.00
12203;BME280;6164;42.178;24.622;2022-12-29T04:24:13;100822.44;;;3.55;100.00
12203;BME280;6164;42.178;24.622;2022-12-29T04:26:47;100825.97;;;3.54;100.00
12203;BME280;6164;42.178;24.622;2022-12-29T04:29:16;100831.38;;;3.51;100.00
12203;BME280;6164;42.178;24.622;2022-12-29T04:31:42;100831.38;;;3.37;100.00
12203;BME280;6164;42.178;24.622;2022-12-29T04:34:09;100832.41;;;3.21;100.00
12203;BME280;6164;42.178;24.622;2022-12-29T04:36:35;100829.38;;;2.99;100.00
12203;BME280;6164;42.178;24.622;2022-12-29T04:39:02;100841.03;;;2.93;100.00
12203;BME280;6164;42.178;24.622;2022-12-29T04:41:30;100838.22;;;2.96;100.00
12203;BME280;6164;42.178;24.622;2022-12-29T04:43:58;100846.97;;;2.95;100.00
12203;BME280;6164;42.178;24.622;2022-12-29T04:46:24;100849.34;;;3.00;100.00
12203;BME280;6164;42.178;24.622;2022-12-29T04:48:51;100854.56;;;3.00;100.00
12203;BME280;6164;42.178;24.622;2022-12-29T04:51:17;100858.25;;;2.96;100.00
12203;BME280;6164;42.178;24.622;2022-12-29T04:53:44;100859.34;;;2.92;100.00
12203;BME280;6164;42.178;24.622;2022-12-29T04:56:10;100859.41;;;2.76;100.00
12203;BME280;6164;42.178;24.622;2022-12-29T04:58:37;100859.44;;;2.60;100.00
12203;BME280;6164;42.178;24.622;2022-12-29T05:01:05;100863.50;;;2.50;100.00
12203;BME280;6164;42.178;24.622;2022-12-29T05:03:31;100858.13;;;2.38;100.00
12203;BME280;6164;42.178;24.622;2022-12-29T05:05:58;100864.19;;;2.38;100.00
12203;BME280;6164;42.178;24.622;2022-12-29T05:08:24;100859.00;;;2.38;100.00
12203;BME280;6164;42.178;24.622;2022-12-29T05:10:51;100862.69;;;2.34;100.00
12203;BME280;6164;42.178;24.622;2022-12-29T05:13:17;100858.91;;;2.40;100.00
12203;BME280;6164;42.178;24.622;2022-12-29T05:15:45;100858.81;;;2.41;100.00
12203;BME280;6164;42.178;24.622;2022-12-29T05:18:19;100859.31;;;2.48;100.00
12203;BME280;6164;42.178;24.622;2022-12-29T05:20:46;100860.97;;;2.49;100.00
12203;BME280;6164;42.178;24.622;2022-12-29T05:23:12;100857.53;;;2.48;100.00
12203;BME280;6164;42.178;24.622;2022-12-29T05:25:39;100860.06;;;2.50;100.00
12203;BME280;6164;42.178;24.622;2022-12-29T05:28:06;100862.59;;;2.51;100.00
12203;BME280;6164;42.178;24.622;2022-12-29T05:30:32;100857.19;;;2.54;100.00
12203;BME280;6164;42.178;24.622;2022-12-29T05:32:59;100851.03;;;2.55;100.00
12203;BME280;6164;42.178;24.622;2022-12-29T05:35:26;100841.28;;;2.59;100.00
12203;BME280;6164;42.178;24.622;2022-12-29T05:37:53;100848.09;;;2.61;100.00
12203;BME280;6164;42.178;24.622;2022-12-29T05:40:19;100843.66;;;2.63;100.00
12203;BME280;6164;42.178;24.622;2022-12-29T05:42:46;100844.38;;;2.65;100.00
12203;BME280;6164;42.178;24.622;2022-12-29T05:45:12;100848.00;;;2.63;100.00
12203;BME280;6164;42.178;24.622;2022-12-29T05:47:39;100846.25;;;2.63;100.00
12203;BME280;6164;42.178;24.622;2022-12-29T05:50:06;100851.47;;;2.63;100.00
12203;BME280;6164;42.178;24.622;2022-12-29T05:52:45;100851.28;;;2.66;100.00
12203;BME280;6164;42.178;24.622;2022-12-29T05:55:12;100850.44;;;2.66;100.00
12203;BME280;6164;42.178;24.622;2022-12-29T05:57:39;100846.97;;;2.65;100.00
12203;BME280;6164;42.178;24.622;2022-12-29T06:00:06;100854.72;;;2.67;100.00
12203;BME280;6164;42.178;24.622;2022-12-29T06:02:33;100837.97;;;2.71;100.00
12203;BME280;6164;42.178;24.622;2022-12-29T06:04:59;100849.91;;;2.75;100.00
12203;BME280;6164;42.178;24.622;2022-12-29T06:07:26;100850.56;;;2.79;100.00
12203;BME280;6164;42.178;24.622;2022-12-29T06:09:53;100853.44;;;2.74;100.00
12203;BME280;6164;42.178;24.622;2022-12-29T06:12:20;100851.38;;;2.65;100.00
12203;BME280;6164;42.178;24.622;2022-12-29T06:14:46;100864.53;;;2.48;100.00
12203;BME280;6164;42.178;24.622;2022-12-29T06:17:13;100864.38;;;2.35;100.00
12203;BME280;6164;42.178;24.622;2022-12-29T06:19:39;100866.00;;;2.22;100.00
12203;BME280;6164;42.178;24.622;2022-12-29T06:22:06;100861.53;;;2.09;100.00
12203;BME280;6164;42.178;24.622;2022-12-29T06:24:33;100869.66;;;1.87;100.00
12203;BME280;6164;42.178;24.622;2022-12-29T06:27:00;100880.16;;;1.86;100.00
12203;BME280;6164;42.178;24.622;2022-12-29T06:29:27;100875.44;;;1.77;100.00
12203;BME280;6164;42.178;24.622;2022-12-29T06:31:54;100876.31;;;1.60;100.00
12203;BME280;6164;42.178;24.622;2022-12-29T06:34:22;100882.19;;;1.48;100.00
12203;BME280;6164;42.178;24.622;2022-12-29T06:36:49;100885.94;;;1.43;100.00
12203;BME280;6164;42.178;24.622;2022-12-29T06:39:15;100893.69;;;1.27;100.00
12203;BME280;6164;42.178;24.622;2022-12-29T06:41:42;100902.34;;;1.27;100.00
12203;BME280;6164;42.178;24.622;2022-12-29T06:44:10;100907.22;;;1.33;100.00
12203;BME280;6164;42.178;24.622;2022-12-29T06:46:36;100909.53;;;1.40;100.00
12203;BME280;6164;42.178;24.622;2022-12-29T06:49:03;100902.16;;;1.48;100.00
12203;BME280;6164;42.178;24.622;2022-12-29T06:51:29;100917.00;;;1.46;100.00
12203;BME280;6164;42.178;24.622;2022-12-29T06:53:56;100914.63;;;1.58;100.00
12203;BME280;6164;42.178;24.622;2022-12-29T06:56:22;100920.09;;;1.69;100.00
12203;BME280;6164;42.178;24.622;2022-12-29T06:58:49;100919.84;;;1.74;100.00
12203;BME280;6164;42.178;24.622;2022-12-29T07:01:17;100916.69;;;1.84;100.00
12203;BME280;6164;42.178;24.622;2022-12-29T07:03:43;100919.78;;;1.75;100.00
12203;BME280;6164;42.178;24.622;2022-12-29T07:06:10;100921.22;;;1.81;100.00
12203;BME280;6164;42.178;24.622;2022-12-29T07:08:36;100920.59;;;1.93;100.00
12203;BME280;6164;42.178;24.622;2022-12-29T07:11:03;100930.94;;;2.10;100.00
12203;BME280;6164;42.178;24.622;2022-12-29T07:13:30;100935.31;;;2.25;100.00
12203;BME280;6164;42.178;24.622;2022-12-29T07:15:56;100929.25;;;2.40;100.00
12203;BME280;6164;42.178;24.622;2022-12-29T07:18:24;100931.94;;;2.54;100.00
12203;BME280;6164;42.178;24.622;2022-12-29T07:20:50;100938.13;;;2.67;100.00
12203;BME280;6164;42.178;24.622;2022-12-29T07:23:17;100935.78;;;2.78;100.00
12203;BME280;6164;42.178;24.622;2022-12-29T07:25:43;100936.19;;;2.86;100.00
12203;BME280;6164;42.178;24.622;2022-12-29T07:28:10;100941.72;;;2.96;100.00
12203;BME280;6164;42.178;24.622;2022-12-29T07:30:36;100936.16;;;3.02;100.00
12203;BME280;6164;42.178;24.622;2022-12-29T07:33:03;100928.66;;;3.11;100.00
12203;BME280;6164;42.178;24.622;2022-12-29T07:35:31;100929.03;;;3.19;100.00
12203;BME280;6164;42.178;24.622;2022-12-29T07:37:59;100925.97;;;3.27;100.00
12203;BME280;6164;42.178;24.622;2022-12-29T07:40:25;100923.84;;;3.33;100.00
12203;BME280;6164;42.178;24.622;2022-12-29T07:42:52;100927.69;;;3.42;100.00
12203;BME280;6164;42.178;24.622;2022-12-29T07:45:18;100921.19;;;3.49;100.00
12203;BME280;6164;42.178;24.622;2022-12-29T07:47:47;100917.81;;;3.61;100.00
12203;BME280;6164;42.178;24.622;2022-12-29T07:50:13;100908.78;;;3.66;100.00
12203;BME280;6164;42.178;24.622;2022-12-29T07:52:41;100911.66;;;3.76;100.00
12203;BME280;6164;42.178;24.622;2022-12-29T07:55:08;100911.13;;;3.85;100.00
12203;BME280;6164;42.178;24.622;2022-12-29T07:57:35;100913.06;;;3.95;100.00
12203;BME280;6164;42.178;24.622;2022-12-29T08:00:01;100901.41;;;4.01;100.00
12203;BME280;6164;42.178;24.622;2022-12-29T08:02:29;100911.91;;;4.14;100.00
12203;BME280;6164;42.178;24.622;2022-12-29T08:04:55;100906.69;;;4.28;100.00
12203;BME280;6164;42.178;24.622;2022-12-29T08:07:22;100907.56;;;4.41;100.00
12203;BME280;6164;42.178;24.622;2022-12-29T08:09:49;100912.75;;;4.55;100.00
12203;BME280;6164;42.178;24.622;2022-12-29T08:12:16;100913.84;;;4.65;100.00
12203;BME280;6164;42.178;24.622;2022-12-29T08:14:42;100912.75;;;4.81;100.00
12203;BME280;6164;42.178;24.622;2022-12-29T08:17:09;100904.75;;;4.97;100.00
12203;BME280;6164;42.178;24.622;2022-12-29T08:19:36;100906.25;;;5.13;100.00
12203;BME280;6164;42.178;24.622;2022-12-29T08:22:02;100900.00;;;5.28;100.00
12203;BME280;6164;42.178;24.622;2022-12-29T08:24:31;100896.53;;;5.40;100.00
12203;BME280;6164;42.178;24.622;2022-12-29T08:26:59;100898.97;;;5.56;100.00
12203;BME280;6164;42.178;24.622;2022-12-29T08:29:26;100891.72;;;5.72;100.00
12203;BME280;6164;42.178;24.622;2022-12-29T08:31:52;100896.03;;;5.86;100.00
12203;BME280;6164;42.178;24.622;2022-12-29T08:34:19;100892.47;;;5.99;100.00
12203;BME280;6164;42.178;24.622;2022-12-29T08:36:45;100883.59;;;6.13;100.00
12203;BME280;6164;42.178;24.622;2022-12-29T08:39:12;100884.31;;;6.27;100.00
12203;BME280;6164;42.178;24.622;2022-12-29T08:41:38;100888.47;;;6.42;100.00
12203;BME280;6164;42.178;24.622;2022-12-29T08:44:06;100877.78;;;6.56;100.00
12203;BME280;6164;42.178;24.622;2022-12-29T08:46:33;100871.44;;;6.72;100.00
12203;BME280;6164;42.178;24.622;2022-12-29T08:48:59;100876.72;;;6.83;100.00
12203;BME280;6164;42.178;24.622;2022-12-29T08:51:26;100878.31;;;6.96;100.00
12203;BME280;6164;42.178;24.622;2022-12-29T08:53:52;100872.16;;;7.08;100.00
12203;BME280;6164;42.178;24.622;2022-12-29T08:56:19;100870.50;;;7.18;100.00
12203;BME280;6164;42.178;24.622;2022-12-29T08:58:45;100854.78;;;7.29;100.00
12203;BME280;6164;42.178;24.622;2022-12-29T09:01:13;100854.78;;;7.40;100.00
12203;BME280;6164;42.178;24.622;2022-12-29T09:03:39;100848.00;;;7.49;100.00
12203;BME280;6164;42.178;24.622;2022-12-29T09:06:06;100840.94;;;7.60;100.00
12203;BME280;6164;42.178;24.622;2022-12-29T09:08:33;100837.94;;;7.76;100.00
12203;BME280;6164;42.178;24.622;2022-12-29T09:11:05;100833.88;;;7.83;100.00
12203;BME280;6164;42.178;24.622;2022-12-29T09:13:32;100837.97;;;7.87;100.00
12203;BME280;6164;42.178;24.622;2022-12-29T09:15:59;100825.63;;;7.87;100.00
12203;BME280;6164;42.178;24.622;2022-12-29T09:18:27;100818.22;;;7.92;100.00
12203;BME280;6164;42.178;24.622;2022-12-29T09:20:55;100811.47;;;8.11;100.00
12203;BME280;6164;42.178;24.622;2022-12-29T09:23:22;100816.53;;;8.25;100.00
12203;BME280;6164;42.178;24.622;2022-12-29T09:25:48;100807.78;;;8.24;100.00
12203;BME280;6164;42.178;24.622;2022-12-29T09:28:15;100794.63;;;8.35;100.00
12203;BME280;6164;42.178;24.622;2022-12-29T09:30:41;100792.19;;;8.43;100.00
12203;BME280;6164;42.178;24.622;2022-12-29T09:33:08;100789.75;;;8.51;100.00
12203;BME280;6164;42.178;24.622;2022-12-29T09:35:36;100787.31;;;8.59;100.00
12203;BME280;6164;42.178;24.622;2022-12-29T09:38:02;100784.63;;;8.70;100.00
12203;BME280;6164;42.178;24.622;2022-12-29T09:40:29;100778.34;;;8.82;100.00
12203;BME280;6164;42.178;24.622;2022-12-29T09:45:48;100768.13;;;8.89;100.00
12203;BME280;6164;42.178;24.622;2022-12-29T09:48:16;100768.59;;;8.94;100.00
12203;BME280;6164;42.178;24.622;2022-12-29T09:50:46;100761.00;;;9.00;100.00
12203;BME280;6164;42.178;24.622;2022-12-29T09:53:14;100754.56;;;9.14;100.00
12203;BME280;6164;42.178;24.622;2022-12-29T09:55:42;100755.19;;;9.27;100.00
12203;BME280;6164;42.178;24.622;2022-12-29T09:58:12;100749.69;;;9.40;100.00
12203;BME280;6164;42.178;24.622;2022-12-29T10:00:41;100745.56;;;9.47;100.00
12203;BME280;6164;42.178;24.622;2022-12-29T10:03:12;100743.63;;;9.49;100.00
12203;BME280;6164;42.178;24.622;2022-12-29T10:05:42;100736.28;;;9.52;100.00
12203;BME280;6164;42.178;24.622;2022-12-29T10:08:18;100736.63;;;9.38;100.00
12203;BME280;6164;42.178;24.622;2022-12-29T10:10:49;100732.94;;;9.50;100.00
12203;BME280;6164;42.178;24.622;2022-12-29T10:13:20;100734.47;;;9.62;100.00
12203;BME280;6164;42.178;24.622;2022-12-29T10:15:54;100729.25;;;9.72;100.00
12203;BME280;6164;42.178;24.622;2022-12-29T10:18:28;100722.16;;;9.72;100.00
12203;BME280;6164;42.178;24.622;2022-12-29T10:20:59;100720.94;;;9.86;100.00
12203;BME280;6164;42.178;24.622;2022-12-29T10:23:31;100713.88;;;9.96;100.00
12203;BME280;6164;42.178;24.622;2022-12-29T10:26:00;100715.69;;;9.95;100.00
12203;BME280;6164;42.178;24.622;2022-12-29T10:28:31;100717.38;;;9.96;100.00
12203;BME280;6164;42.178;24.622;2022-12-29T10:30:59;100702.09;;;10.00;100.00
12203;BME280;6164;42.178;24.622;2022-12-29T10:33:29;100706.13;;;10.04;100.00
12203;BME280;6164;42.178;24.622;2022-12-29T10:35:58;100701.72;;;10.14;100.00
12203;BME280;6164;42.178;24.622;2022-12-29T10:38:25;100706.28;;;10.12;100.00
12203;BME280;6164;42.178;24.622;2022-12-29T10:40:57;100696.13;;;10.07;100.00
12203;BME280;6164;42.178;24.622;2022-12-29T10:43:25;100695.69;;;9.93;100.00
12203;BME280;6164;42.178;24.622;2022-12-29T10:45:52;100695.97;;;9.90;100.00
12203;BME280;6164;42.178;24.622;2022-12-29T10:48:20;100696.13;;;10.07;100.00
12203;BME280;6164;42.178;24.622;2022-12-29T10:50:48;100692.13;;;10.22;100.00
12203;BME280;6164;42.178;24.622;2022-12-29T10:53:18;100679.88;;;10.40;100.00
12203;BME280;6164;42.178;24.622;2022-12-29T10:55:46;100687.50;;;10.53;100.00
12203;BME280;6164;42.178;24.622;2022-12-29T10:58:15;100676.09;;;10.62;100.00
12203;BME280;6164;42.178;24.622;2022-12-29T11:00:43;100679.72;;;10.71;100.00
12203;BME280;6164;42.178;24.622;2022-12-29T11:06:01;100671.41;;;10.93;99.31
12203;BME280;6164;42.178;24.622;2022-12-29T11:08:33;100667.94;;;11.02;98.49
12203;BME280;6164;42.178;24.622;2022-12-29T11:11:01;100666.00;;;10.94;97.50
12203;BME280;6164;42.178;24.622;2022-12-29T11:13:30;100660.28;;;10.99;97.14
12203;BME280;6164;42.178;24.622;2022-12-29T11:15:57;100656.91;;;11.06;98.01
12203;BME280;6164;42.178;24.622;2022-12-29T11:18:26;100658.31;;;11.10;96.71
12203;BME280;6164;42.178;24.622;2022-12-29T11:20:53;100650.38;;;11.10;95.61
12203;BME280;6164;42.178;24.622;2022-12-29T11:23:21;100656.56;;;11.19;96.81
12203;BME280;6164;42.178;24.622;2022-12-29T11:25:52;100653.50;;;11.23;97.41
12203;BME280;6164;42.178;24.622;2022-12-29T11:28:32;100653.06;;;11.28;96.88
12203;BME280;6164;42.178;24.622;2022-12-29T11:30:59;100649.38;;;11.38;96.54
12203;BME280;6164;42.178;24.622;2022-12-29T11:33:27;100649.34;;;11.48;96.08
12203;BME280;6164;42.178;24.622;2022-12-29T11:35:56;100642.38;;;11.47;95.49
12203;BME280;6164;42.178;24.622;2022-12-29T11:38:26;100643.91;;;11.49;94.67
12203;BME280;6164;42.178;24.622;2022-12-29T11:40:57;100631.22;;;11.53;94.79
12203;BME280;6164;42.178;24.622;2022-12-29T11:43:24;100635.75;;;11.60;94.50
12203;BME280;6164;42.178;24.622;2022-12-29T11:45:57;100632.25;;;11.69;93.46
12203;BME280;6164;42.178;24.622;2022-12-29T11:48:23;100631.63;;;11.75;92.95
12203;BME280;6164;42.178;24.622;2022-12-29T11:50:53;100628.53;;;11.80;92.93
12203;BME280;6164;42.178;24.622;2022-12-29T11:53:20;100629.59;;;11.87;91.72
12203;BME280;6164;42.178;24.622;2022-12-29T11:55:51;100624.00;;;11.90;91.67
12203;BME280;6164;42.178;24.622;2022-12-29T11:58:18;100618.09;;;11.96;92.06
12203;BME280;6164;42.178;24.622;2022-12-29T12:00:44;100614.53;;;12.05;91.82
12203;BME280;6164;42.178;24.622;2022-12-29T12:03:14;100609.31;;;12.13;90.53
12203;BME280;6164;42.178;24.622;2022-12-29T12:05:43;100608.69;;;12.19;89.98
12203;BME280;6164;42.178;24.622;2022-12-29T12:08:17;100607.41;;;12.23;89.36
12203;BME280;6164;42.178;24.622;2022-12-29T12:10:46;100605.13;;;12.28;90.05
12203;BME280;6164;42.178;24.622;2022-12-29T12:13:21;100603.22;;;12.38;90.25
12203;BME280;6164;42.178;24.622;2022-12-29T12:15:51;100604.03;;;12.39;88.29
12203;BME280;6164;42.178;24.622;2022-12-29T12:18:21;100599.41;;;12.41;88.35
12203;BME280;6164;42.178;24.622;2022-12-29T12:20:52;100604.53;;;12.42;87.39
12203;BME280;6164;42.178;24.622;2022-12-29T12:23:26;100601.91;;;12.42;86.03
12203;BME280;6164;42.178;24.622;2022-12-29T12:25:57;100598.44;;;12.42;86.48
12203;BME280;6164;42.178;24.622;2022-12-29T12:28:26;100592.47;;;12.40;86.76
12203;BME280;6164;42.178;24.622;2022-12-29T12:30:56;100597.44;;;12.43;87.80
12203;BME280;6164;42.178;24.622;2022-12-29T12:33:26;100589.84;;;12.48;87.10
12203;BME280;6164;42.178;24.622;2022-12-29T12:35:57;100592.56;;;12.56;86.94
12203;BME280;6164;42.178;24.622;2022-12-29T12:38:31;100580.19;;;12.64;88.04
12203;BME280;6164;42.178;24.622;2022-12-29T12:41:08;100584.31;;;12.67;86.54
12203;BME280;6164;42.178;24.622;2022-12-29T12:43:43;100584.84;;;12.70;87.34
12203;BME280;6164;42.178;24.622;2022-12-29T12:46:18;100586.69;;;12.70;86.98
12203;BME280;6164;42.178;24.622;2022-12-29T12:48:54;100589.69;;;12.75;86.75
12203;BME280;6164;42.178;24.622;2022-12-29T12:51:28;100587.41;;;12.80;85.92
12203;BME280;6164;42.178;24.622;2022-12-29T12:54:01;100585.56;;;12.80;86.60
12203;BME280;6164;42.178;24.622;2022-12-29T12:56:38;100584.75;;;12.80;86.42
12203;BME280;6164;42.178;24.622;2022-12-29T12:59:12;100580.59;;;12.77;86.43
12203;BME280;6164;42.178;24.622;2022-12-29T13:01:45;100580.44;;;12.79;86.67
12203;BME280;6164;42.178;24.622;2022-12-29T13:07:06;100583.59;;;12.82;86.10
12203;BME280;6164;42.178;24.622;2022-12-29T13:12:28;100585.03;;;12.77;86.33
12203;BME280;6164;42.178;24.622;2022-12-29T13:14:59;100587.84;;;12.75;86.46